Time;durP1;ratioP1;P1;durP2;ratioP2;P2;SDS_P1;SDS_P2;PMS_P1;PMS_P2;Temp;Humidity;BMP_temperature;BMP_pressure;BME280_temperature;BME280_humidity;BME280_pressure;Samples;Min_cycle;Max_cycle;Signal;HPM_P1;HPM_P2
2021/10/11 00:01:01;;;;;;;;;66.25;50.50;;;;;14.84;69.28;102510.44;4954153;28;45397;-77
2021/10/11 00:03:27;;;;;;;;;65.25;50.00;;;;;14.79;69.45;102507.69;4953374;28;45518;-75
2021/10/11 00:05:52;;;;;;;;;68.00;52.75;;;;;14.73;69.68;102501.34;4954403;28;45483;-76
2021/10/11 00:08:18;;;;;;;;;67.00;50.00;;;;;14.71;69.99;102501.31;4953752;28;54307;-76
2021/10/11 00:10:43;;;;;;;;;64.75;52.00;;;;;14.67;69.61;102487.06;4936508;28;57756;-76
2021/10/11 00:13:09;;;;;;;;;68.00;51.75;;;;;14.72;69.97;102494.25;4929646;28;46889;-75
2021/10/11 00:15:34;;;;;;;;;64.00;49.75;;;;;14.72;70.21;102487.16;4953788;28;45917;-76
2021/10/11 00:17:59;;;;;;;;;69.00;52.50;;;;;14.71;70.03;102496.00;4954225;28;50543;-76
2021/10/11 00:20:25;;;;;;;;;68.50;51.00;;;;;14.68;69.84;102491.50;4953748;28;46567;-76
2021/10/11 00:22:50;;;;;;;;;70.50;52.50;;;;;14.66;69.81;102500.34;4953827;28;53774;-76
2021/10/11 00:25:16;;;;;;;;;74.25;52.25;;;;;14.62;70.34;102494.03;4954075;28;45275;-76
2021/10/11 00:27:41;;;;;;;;;68.00;51.50;;;;;14.63;70.45;102500.25;4953555;28;45416;-76
2021/10/11 00:30:08;;;;;;;;;65.50;52.25;;;;;14.62;69.94;102507.34;4953231;28;61175;-77
2021/10/11 00:32:33;;;;;;;;;69.75;54.75;;;;;14.60;70.38;102509.06;4948442;28;45632;-75
2021/10/11 00:34:59;;;;;;;;;67.25;51.75;;;;;14.59;70.39;102509.91;4949451;28;55463;-75
2021/10/11 00:37:24;;;;;;;;;69.25;53.25;;;;;14.56;70.15;102501.00;4953829;28;49008;-75
2021/10/11 00:39:50;;;;;;;;;66.75;51.75;;;;;14.52;70.41;102508.00;4935051;28;60050;-76
2021/10/11 00:42:15;;;;;;;;;67.25;52.50;;;;;14.47;70.59;102507.00;4953297;28;48385;-76
2021/10/11 00:44:40;;;;;;;;;70.50;54.50;;;;;14.43;70.59;102505.09;4953576;28;52449;-75
2021/10/11 00:47:06;;;;;;;;;70.25;52.50;;;;;14.37;70.58;102510.28;4953231;28;51508;-75
2021/10/11 00:49:31;;;;;;;;;69.00;54.00;;;;;14.32;70.83;102507.53;4953027;28;61128;-76
2021/10/11 00:51:56;;;;;;;;;71.25;53.00;;;;;14.28;70.94;102499.47;4952518;28;58750;-76
2021/10/11 00:54:23;;;;;;;;;68.25;53.25;;;;;14.24;70.47;102494.94;4936494;28;46062;-77
2021/10/11 00:56:48;;;;;;;;;66.50;51.25;;;;;14.19;70.83;102486.88;4953425;28;45413;-77
2021/10/11 00:59:14;;;;;;;;;67.75;52.50;;;;;14.13;70.56;102478.75;4935685;28;46103;-77
2021/10/11 01:01:39;;;;;;;;;69.00;51.75;;;;;14.10;70.98;102473.38;4953578;28;45265;-76
2021/10/11 01:04:06;;;;;;;;;71.50;53.75;;;;;14.03;71.19;102476.75;4952729;28;51165;-76
2021/10/11 01:06:41;;;;;;;;;72.00;54.00;;;;;14.00;71.54;102474.00;4922270;28;45425;-76
2021/10/11 01:09:07;;;;;;;;;66.00;53.00;;;;;14.00;71.38;102474.00;4956166;28;47306;-75
2021/10/11 01:11:33;;;;;;;;;68.25;51.25;;;;;14.02;71.66;102486.47;4939289;28;45586;-77
2021/10/11 01:13:58;;;;;;;;;71.50;54.75;;;;;14.03;71.95;102477.66;4939176;28;45504;-77
2021/10/11 01:16:23;;;;;;;;;75.00;53.50;;;;;14.06;72.37;102488.34;4938840;28;46683;-75
2021/10/11 01:18:49;;;;;;;;;72.25;55.25;;;;;14.10;72.21;102490.19;4955926;28;62019;-76
2021/10/11 01:21:14;;;;;;;;;70.75;54.75;;;;;14.14;72.28;102480.56;4956263;28;45376;-75
2021/10/11 01:23:40;;;;;;;;;75.50;57.00;;;;;14.20;72.92;102490.41;4955547;28;45545;-76
2021/10/11 01:26:05;;;;;;;;;66.50;52.25;;;;;14.18;72.77;102474.44;4955249;28;48034;-76
2021/10/11 01:28:30;;;;;;;;;73.00;56.25;;;;;14.29;72.73;102482.66;4954664;28;53278;-76
2021/10/11 01:30:56;;;;;;;;;70.75;52.25;;;;;14.35;72.42;102480.13;4956425;28;49006;-76
2021/10/11 01:33:21;;;;;;;;;71.00;51.25;;;;;14.42;72.93;102476.72;4952672;28;45351;-75
2021/10/11 01:35:47;;;;;;;;;66.75;51.25;;;;;14.47;72.96;102471.53;4955506;28;45731;-76
2021/10/11 01:38:12;;;;;;;;;67.25;51.25;;;;;14.52;72.75;102470.78;4956427;28;46469;-76
2021/10/11 01:40:38;;;;;;;;;67.25;50.50;;;;;14.55;72.83;102469.97;4948643;28;59861;-75
2021/10/11 01:43:05;;;;;;;;;68.25;53.00;;;;;14.58;72.90;102462.03;4939528;28;45317;-76
2021/10/11 01:45:31;;;;;;;;;67.75;51.75;;;;;14.62;72.62;102451.50;4955974;28;45701;-77
2021/10/11 01:47:56;;;;;;;;;69.00;52.50;;;;;14.65;72.68;102459.56;4955524;28;46506;-76
2021/10/11 01:50:22;;;;;;;;;68.75;51.75;;;;;14.68;72.66;102461.38;4955486;28;57983;-77
2021/10/11 01:52:48;;;;;;;;;68.75;53.00;;;;;14.71;73.21;102466.75;4955026;28;53945;-76
2021/10/11 01:55:13;;;;;;;;;72.00;52.25;;;;;14.74;72.60;102471.22;4956183;28;45630;-76
2021/10/11 01:57:38;;;;;;;;;73.25;54.25;;;;;14.77;72.48;102474.84;4955337;28;61713;-76
2021/10/11 02:00:07;;;;;;;;;71.50;55.50;;;;;14.75;72.63;102459.72;4955467;28;45312;-75
2021/10/11 02:02:34;;;;;;;;;65.50;50.50;;;;;14.80;72.56;102472.25;4955757;28;45392;-76
2021/10/11 02:04:59;;;;;;;;;70.25;53.25;;;;;14.87;72.62;102479.50;4955586;28;45468;-77
2021/10/11 02:07:25;;;;;;;;;67.25;52.25;;;;;14.91;72.81;102481.34;4955678;28;46715;-76
2021/10/11 02:09:50;;;;;;;;;69.00;52.25;;;;;14.91;72.18;102469.78;4955844;28;45196;-76
2021/10/11 02:12:16;;;;;;;;;68.50;51.75;;;;;14.98;72.13;102473.50;4955118;28;50041;-77
2021/10/11 02:14:41;;;;;;;;;68.50;51.25;;;;;14.99;72.38;102470.84;4955722;28;45526;-76
2021/10/11 02:17:06;;;;;;;;;67.00;51.75;;;;;15.03;72.53;102464.72;4954550;28;60063;-76
2021/10/11 02:19:32;;;;;;;;;68.00;52.00;;;;;15.05;72.71;102468.28;4955420;28;58255;-76
2021/10/11 02:21:57;;;;;;;;;65.00;50.50;;;;;15.09;72.29;102471.91;4955079;28;53116;-76
2021/10/11 02:24:22;;;;;;;;;60.00;47.25;;;;;15.10;72.27;102466.63;4955684;28;46474;-77
2021/10/11 02:26:48;;;;;;;;;62.25;47.00;;;;;15.15;72.68;102467.59;4955570;28;46412;-75
2021/10/11 02:29:13;;;;;;;;;61.50;46.75;;;;;15.16;72.66;102461.41;4954098;28;58630;-77
2021/10/11 02:31:39;;;;;;;;;56.75;44.00;;;;;15.16;72.85;102447.22;4955657;28;45393;-76
2021/10/11 02:34:04;;;;;;;;;57.25;42.25;;;;;15.23;72.13;102453.53;4953696;28;45488;-77
2021/10/11 02:36:30;;;;;;;;;56.50;43.00;;;;;15.25;72.16;102444.72;4954869;28;56870;-76
2021/10/11 02:38:55;;;;;;;;;54.50;43.00;;;;;15.27;72.83;102440.31;4953027;28;45293;-76
2021/10/11 02:41:21;;;;;;;;;51.25;37.25;;;;;15.27;72.28;102439.41;4952614;28;54599;-76
2021/10/11 02:43:47;;;;;;;;;53.50;42.25;;;;;15.26;72.14;102441.19;4955677;28;45449;-76
2021/10/11 02:46:12;;;;;;;;;49.00;39.50;;;;;15.30;72.78;102452.78;4955551;28;45618;-75
2021/10/11 02:48:38;;;;;;;;;55.50;42.25;;;;;15.30;72.54;102443.03;4938068;28;56319;-75
2021/10/11 02:51:03;;;;;;;;;56.00;39.75;;;;;15.31;72.27;102442.16;4955448;28;52935;-76
2021/10/11 02:53:29;;;;;;;;;51.25;39.25;;;;;15.31;72.78;102434.19;4938163;28;45548;-75
2021/10/11 02:55:54;;;;;;;;;46.75;38.50;;;;;15.32;72.75;102446.59;4955334;28;47373;-77
2021/10/11 02:58:20;;;;;;;;;48.25;37.00;;;;;15.32;72.86;102443.94;4955601;28;45933;-76
2021/10/11 03:00:45;;;;;;;;;52.75;39.00;;;;;15.32;72.38;102437.72;4954880;28;53588;-76
2021/10/11 03:03:11;;;;;;;;;36.25;31.25;;;;;15.32;72.68;102441.28;4955529;28;51414;-77
2021/10/11 03:05:36;;;;;;;;;49.25;38.75;;;;;15.33;72.79;102444.84;4954919;28;63185;-76
2021/10/11 03:08:01;;;;;;;;;44.75;35.50;;;;;15.31;72.54;102434.19;4954893;28;57579;-76
2021/10/11 03:10:27;;;;;;;;;46.25;35.00;;;;;15.35;72.59;102438.69;4937887;28;54898;-76
2021/10/11 03:12:52;;;;;;;;;42.75;33.00;;;;;15.36;72.86;102437.81;4954998;28;45348;-76
2021/10/11 03:15:17;;;;;;;;;40.00;32.00;;;;;15.35;72.50;102445.78;4981045;28;64506;-76
2021/10/11 03:17:43;;;;;;;;;36.33;33.67;;;;;15.36;72.84;102443.13;4955021;28;45489;-76
2021/10/11 03:20:09;;;;;;;;;31.67;26.33;;;;;15.36;73.03;102447.56;4954474;28;54684;-76
2021/10/11 03:22:35;;;;;;;;;35.67;28.33;;;;;15.35;73.12;102452.00;4955239;28;45565;-76
2021/10/11 03:25:00;;;;;;;;;34.33;28.33;;;;;15.36;72.50;102442.25;4954618;28;45735;-76
2021/10/11 03:27:25;;;;;;;;;34.33;28.67;;;;;15.37;72.48;102449.34;4954597;28;57208;-76
2021/10/11 03:29:51;;;;;;;;;31.33;29.67;;;;;15.34;72.81;102435.97;4953710;28;51427;-76
2021/10/11 03:32:16;;;;;;;;;35.67;29.33;;;;;15.35;72.55;102443.13;4974696;28;50879;-75
2021/10/11 03:34:42;;;;;;;;;27.67;25.33;;;;;15.37;73.08;102458.22;4948870;28;58669;-76
2021/10/11 03:37:07;;;;;;;;;26.67;26.67;;;;;15.38;72.92;102462.69;4954206;28;45349;-76
2021/10/11 03:39:32;;;;;;;;;26.00;22.00;;;;;15.39;72.71;102456.50;4951223;28;45471;-76
2021/10/11 03:41:58;;;;;;;;;24.67;23.67;;;;;15.40;72.88;102465.38;4954138;28;53497;-75
2021/10/11 03:44:23;;;;;;;;;23.33;22.00;;;;;15.40;72.67;102458.31;4953791;28;45539;-76
2021/10/11 03:46:49;;;;;;;;;22.33;20.67;;;;;15.40;72.86;102454.75;4953887;28;48986;-76
2021/10/11 03:49:14;;;;;;;;;25.33;20.33;;;;;15.39;72.82;102444.94;4954464;28;45337;-75
2021/10/11 03:51:39;;;;;;;;;25.67;19.67;;;;;15.37;72.78;102452.00;4937093;28;53021;-76
2021/10/11 03:54:05;;;;;;;;;26.00;21.00;;;;;15.40;72.90;102452.09;4936371;28;60192;-77
2021/10/11 03:56:30;;;;;;;;;22.33;20.00;;;;;15.41;72.78;102452.09;4954106;28;58501;-75
2021/10/11 03:58:56;;;;;;;;;27.33;20.00;;;;;15.40;72.63;102450.31;4953372;28;51593;-76
2021/10/11 04:01:21;;;;;;;;;18.67;18.33;;;;;15.39;72.46;102453.84;4954512;28;51064;-76
2021/10/11 04:03:46;;;;;;;;;23.00;17.67;;;;;15.36;72.36;102450.22;4954442;28;45713;-76
2021/10/11 04:06:12;;;;;;;;;19.33;15.33;;;;;15.28;72.72;102446.53;4954301;28;45493;-77
2021/10/11 04:08:43;;;;;;;;;21.33;16.00;;;;;15.24;72.70;102460.66;4954881;28;45358;-76
2021/10/11 04:11:21;;;;;;;;;23.33;19.33;;;;;15.17;72.86;102456.97;4954257;28;45492;-76
2021/10/11 04:13:47;;;;;;;;;26.00;21.00;;;;;15.11;72.96;102462.19;4954313;28;47463;-77
2021/10/11 04:16:12;;;;;;;;;25.67;18.00;;;;;15.05;73.23;102465.63;4953960;28;46682;-76
2021/10/11 04:18:38;;;;;;;;;19.67;17.00;;;;;14.94;73.17;102453.91;4935788;28;53252;-76
2021/10/11 04:21:04;;;;;;;;;22.67;17.00;;;;;14.95;72.82;102461.00;4954236;28;45488;-76
2021/10/11 04:23:29;;;;;;;;;20.33;18.00;;;;;14.90;72.96;102462.69;4954002;28;46640;-75
2021/10/11 04:25:55;;;;;;;;;24.00;20.00;;;;;14.88;73.21;102469.75;4936746;28;45334;-76
2021/10/11 04:28:20;;;;;;;;;23.67;20.00;;;;;14.84;72.98;102462.56;4936069;28;45444;-76
2021/10/11 04:30:46;;;;;;;;;20.33;20.33;;;;;14.87;73.14;102475.94;4954503;28;45332;-75
2021/10/11 04:33:11;;;;;;;;;31.67;27.33;;;;;14.86;72.88;102476.78;4952177;28;45594;-76
2021/10/11 04:35:37;;;;;;;;;49.75;38.25;;;;;14.83;72.83;102480.28;4953682;28;45372;-76
2021/10/11 04:38:02;;;;;;;;;53.50;41.00;;;;;14.72;73.30;102467.66;4953721;28;45525;-75
2021/10/11 04:40:28;;;;;;;;;54.75;42.50;;;;;14.78;73.02;102481.06;4949672;28;45286;-76
2021/10/11 04:42:53;;;;;;;;;45.50;36.25;;;;;14.75;73.42;102484.53;4956626;28;45745;-77
2021/10/11 04:45:19;;;;;;;;;49.25;39.25;;;;;14.71;72.83;102477.41;4956896;28;55206;-76
2021/10/11 04:47:44;;;;;;;;;45.00;36.25;;;;;14.63;72.95;102477.22;4956728;28;45205;-76
2021/10/11 04:50:09;;;;;;;;;38.50;34.50;;;;;14.63;72.93;102484.31;4956787;28;45539;-76
2021/10/11 04:52:35;;;;;;;;;41.25;33.50;;;;;14.59;73.61;102499.28;4955593;28;56165;-76
2021/10/11 04:55:00;;;;;;;;;48.00;34.75;;;;;14.57;73.87;102492.16;4939463;28;45484;-77
2021/10/11 04:57:26;;;;;;;;;40.25;31.00;;;;;14.54;73.57;102495.66;4953823;28;54967;-77
2021/10/11 04:59:51;;;;;;;;;38.67;30.00;;;;;14.56;73.38;102512.53;4957259;28;45265;-77
2021/10/11 05:02:16;;;;;;;;;42.00;34.25;;;;;14.56;73.93;102498.34;4955905;28;47102;-75
2021/10/11 05:04:42;;;;;;;;;38.75;32.00;;;;;14.59;73.43;102495.72;4955822;28;58730;-76
2021/10/11 05:07:07;;;;;;;;;48.00;38.50;;;;;14.59;73.44;102495.72;4956120;28;51430;-76
2021/10/11 05:09:33;;;;;;;;;54.50;41.50;;;;;14.59;73.75;102483.34;4956107;28;45286;-75
2021/10/11 05:11:58;;;;;;;;;51.75;41.25;;;;;14.54;73.73;102484.09;4955674;28;45402;-76
2021/10/11 05:14:24;;;;;;;;;53.00;41.75;;;;;14.48;73.66;102481.31;4955834;28;45318;-75
2021/10/11 05:16:49;;;;;;;;;50.25;39.00;;;;;14.44;73.32;102482.09;4954971;28;53194;-76
2021/10/11 05:19:23;;;;;;;;;51.00;40.00;;;;;14.40;73.47;102486.44;4956532;28;45625;-77
2021/10/11 05:21:48;;;;;;;;;57.25;42.00;;;;;14.35;73.65;102488.09;4955867;28;47545;-78
2021/10/11 05:24:13;;;;;;;;;43.50;38.25;;;;;14.29;73.45;102486.22;4955757;28;57139;-77
2021/10/11 05:26:39;;;;;;;;;50.25;39.00;;;;;14.24;73.39;102493.19;4954074;28;58284;-77
2021/10/11 05:29:04;;;;;;;;;43.75;35.75;;;;;14.20;73.61;102487.75;4955901;28;45441;-76
2021/10/11 05:31:29;;;;;;;;;48.75;38.75;;;;;14.18;73.33;102482.41;4953677;28;60177;-79
2021/10/11 05:33:55;;;;;;;;;45.75;37.00;;;;;14.19;73.79;102491.28;4951409;28;45441;-80
2021/10/11 05:36:21;;;;;;;;;48.00;36.25;;;;;14.20;73.95;102488.66;4936653;28;55129;-77
2021/10/11 05:38:46;;;;;;;;;41.75;33.75;;;;;14.19;73.84;102499.25;4935652;28;45528;-77
2021/10/11 05:41:11;;;;;;;;;45.75;34.75;;;;;14.16;73.80;102498.31;4952120;28;63575;-79
2021/10/11 05:43:37;;;;;;;;;42.75;36.00;;;;;14.16;73.78;102498.31;4954121;28;59202;-80
2021/10/11 05:46:02;;;;;;;;;47.00;33.25;;;;;14.20;74.13;102503.69;4953805;28;55144;-77
2021/10/11 05:48:27;;;;;;;;;36.50;32.50;;;;;14.20;73.76;102501.03;4954136;28;52728;-77
2021/10/11 05:50:53;;;;;;;;;37.00;32.33;;;;;14.25;73.60;102502.03;4936741;28;58474;-77
2021/10/11 05:53:18;;;;;;;;;40.00;32.00;;;;;14.27;73.78;102500.31;4949543;28;59732;-76
2021/10/11 05:55:44;;;;;;;;;35.50;32.00;;;;;14.24;73.95;102503.81;4951311;28;51550;-75
2021/10/11 05:58:09;;;;;;;;;41.67;33.00;;;;;14.22;73.37;102510.88;4947447;28;53968;-77
2021/10/11 06:00:34;;;;;;;;;36.00;31.00;;;;;14.19;75.23;102507.22;4951853;28;61806;-76
2021/10/11 06:03:00;;;;;;;;;36.00;30.67;;;;;14.09;75.40;102517.63;4950337;28;58942;-75
2021/10/11 06:05:25;;;;;;;;;38.50;31.75;;;;;13.98;75.57;102519.13;4953471;28;45574;-73
2021/10/11 06:07:51;;;;;;;;;33.50;27.50;;;;;13.87;75.72;102523.28;4950486;28;45544;-73
2021/10/11 06:10:16;;;;;;;;;33.67;27.33;;;;;13.72;76.16;102525.56;4950561;28;60332;-72
2021/10/11 06:12:42;;;;;;;;;29.00;27.00;;;;;13.67;76.21;102525.44;4951726;28;57955;-73
2021/10/11 06:15:08;;;;;;;;;30.75;28.00;;;;;13.54;76.76;102518.94;4954016;28;45496;-74
2021/10/11 06:17:34;;;;;;;;;42.00;29.33;;;;;13.48;77.29;102534.69;4951140;28;45664;-72
2021/10/11 06:19:59;;;;;;;;;26.75;22.50;;;;;13.43;76.74;102532.78;4946636;28;45446;-72
2021/10/11 06:22:24;;;;;;;;;26.33;25.67;;;;;13.36;76.98;102550.28;4946365;28;45641;-73
2021/10/11 06:24:50;;;;;;;;;32.00;27.33;;;;;13.33;77.38;102543.16;4936698;28;45463;-73
2021/10/11 06:27:15;;;;;;;;;32.67;31.33;;;;;13.32;77.88;102551.06;4949579;28;45670;-75
2021/10/11 06:29:41;;;;;;;;;32.00;25.33;;;;;13.29;77.88;102550.97;4933016;28;46386;-74
2021/10/11 06:32:06;;;;;;;;;36.67;27.00;;;;;13.24;77.70;102560.56;4949814;28;46441;-73
2021/10/11 06:34:31;;;;;;;;;34.00;28.00;;;;;13.18;77.79;102553.28;5018956;28;46176;-73
2021/10/11 06:36:57;;;;;;;;;35.33;29.33;;;;;13.16;78.09;102549.72;4948504;28;48707;-73
2021/10/11 06:39:23;;;;;;;;;34.00;28.50;;;;;13.13;77.23;102546.06;4949919;28;47246;-73
2021/10/11 06:41:48;;;;;;;;;37.00;29.00;;;;;13.09;77.39;102561.88;4949255;28;45428;-74
2021/10/11 06:44:13;;;;;;;;;33.33;26.33;;;;;13.02;77.22;102567.88;4947496;28;47324;-73
2021/10/11 06:46:39;;;;;;;;;28.00;26.00;;;;;13.01;78.25;102570.50;4949177;28;45559;-75
2021/10/11 06:49:04;;;;;;;;;29.00;26.67;;;;;13.00;78.55;102568.69;4950584;28;45629;-73
2021/10/11 06:51:30;;;;;;;;;27.67;23.33;;;;;13.05;77.46;102567.97;4948956;28;56755;-76
2021/10/11 06:53:55;;;;;;;;;25.67;23.67;;;;;13.11;77.07;102569.91;4950103;28;54435;-76
2021/10/11 06:56:20;;;;;;;;;22.33;19.33;;;;;13.06;76.94;102547.66;4948299;28;50157;-76
2021/10/11 06:58:46;;;;;;;;;21.67;19.00;;;;;13.24;76.76;102557.91;4945998;28;55002;-75
2021/10/11 07:01:12;;;;;;;;;24.67;22.00;;;;;13.32;76.65;102562.56;4949935;28;57141;-75
2021/10/11 07:03:38;;;;;;;;;21.33;14.33;;;;;13.36;76.37;102555.56;4945598;28;45483;-75
2021/10/11 07:06:06;;;;;;;;;21.67;18.33;;;;;13.43;76.17;102560.22;4945099;28;45385;-75
2021/10/11 07:08:32;;;;;;;;;25.00;20.00;;;;;13.48;76.10;102571.84;4946488;28;46658;-75
2021/10/11 07:10:57;;;;;;;;;25.67;20.00;;;;;13.56;75.97;102572.94;4948944;28;45369;-75
2021/10/11 07:13:23;;;;;;;;;23.67;20.00;;;;;13.59;75.80;102565.06;4951579;28;45368;-75
2021/10/11 07:15:49;;;;;;;;;19.00;16.67;;;;;13.65;75.53;102564.34;4943280;28;45626;-75
2021/10/11 07:18:15;;;;;;;;;21.00;18.33;;;;;13.67;75.57;102567.91;4945813;28;45693;-75
2021/10/11 07:20:43;;;;;;;;;21.67;17.33;;;;;13.73;75.59;102570.72;4951449;28;45762;-75
2021/10/11 07:23:18;;;;;;;;;26.00;19.33;;;;;13.76;75.15;102572.56;4947392;28;45614;-75
2021/10/11 07:25:44;;;;;;;;;24.00;21.00;;;;;13.79;75.12;102573.53;4950329;28;45658;-76
2021/10/11 07:28:10;;;;;;;;;22.33;17.33;;;;;13.82;75.23;102581.59;4952541;28;46328;-75
2021/10/11 07:30:35;;;;;;;;;24.00;21.00;;;;;13.86;75.16;102585.22;4951498;28;45481;-75
2021/10/11 07:33:02;;;;;;;;;21.33;19.67;;;;;13.87;74.73;102584.38;4986071;23;52318;-75
2021/10/11 07:35:28;;;;;;;;;24.00;20.33;;;;;13.94;74.78;102585.41;4971538;28;46292;-76
2021/10/11 07:37:53;;;;;;;;;12.33;10.67;;;;;13.98;74.62;102598.81;4966402;28;47505;-76
2021/10/11 07:40:20;;;;;;;;;14.67;12.00;;;;;14.02;74.26;102594.50;4974508;28;58208;-76
2021/10/11 07:42:45;;;;;;;;;10.33;10.33;;;;;14.05;74.00;102598.09;4966515;28;45559;-76
2021/10/11 07:45:11;;;;;;;;;14.33;7.33;;;;;14.07;73.91;102596.41;4971600;28;45474;-75
2021/10/11 07:47:36;;;;;;;;;13.33;7.00;;;;;14.11;73.80;102595.63;4970911;28;56492;-76
2021/10/11 07:50:02;;;;;;;;;12.00;7.33;;;;;14.15;73.57;102600.13;4971584;28;45863;-74
2021/10/11 07:52:27;;;;;;;;;10.00;7.00;;;;;14.18;73.60;102591.34;4967196;28;46423;-75
2021/10/11 07:54:52;;;;;;;;;7.00;7.00;;;;;14.21;73.51;102598.47;4971080;28;45358;-75
2021/10/11 07:57:18;;;;;;;;;10.67;5.33;;;;;14.25;73.42;102605.66;4967421;28;60253;-74
2021/10/11 07:59:43;;;;;;;;;9.33;7.00;;;;;14.30;73.24;102614.66;4971972;28;45313;-76
2021/10/11 08:02:09;;;;;;;;;7.00;6.33;;;;;14.33;73.10;102607.66;4969302;28;50936;-74
2021/10/11 08:04:34;;;;;;;;;6.67;6.67;;;;;14.36;73.33;102617.44;4964237;28;46010;-74
2021/10/11 08:07:00;;;;;;;;;10.33;8.00;;;;;14.39;73.19;102614.88;4968265;28;59651;-74
2021/10/11 08:09:38;;;;;;;;;8.00;7.00;;;;;14.42;72.85;102622.91;4969853;28;45309;-75
2021/10/11 08:12:04;;;;;;;;;8.33;7.00;;;;;14.45;73.02;102620.34;4963535;28;45524;-75
2021/10/11 08:14:30;;;;;;;;;5.67;5.00;;;;;14.43;72.25;102611.41;4967995;28;45486;-75
2021/10/11 08:16:55;;;;;;;;;8.67;4.67;;;;;14.53;72.72;102613.44;4974920;28;47550;-76
2021/10/11 08:19:22;;;;;;;;;6.67;4.67;;;;;14.56;72.38;102608.22;4971189;28;59651;-75
2021/10/11 08:21:48;;;;;;;;;9.33;5.00;;;;;14.60;72.10;102599.47;4974359;28;45467;-75
2021/10/11 08:24:15;;;;;;;;;5.67;4.33;;;;;14.63;72.37;102612.81;4976342;28;46846;-76
2021/10/11 08:26:40;;;;;;;;;5.00;4.00;;;;;14.67;72.20;102620.00;4971308;28;46413;-75
2021/10/11 08:29:07;;;;;;;;;3.00;3.00;;;;;14.70;71.52;102620.91;4974172;28;57872;-75
2021/10/11 08:31:32;;;;;;;;;4.00;4.00;;;;;14.73;71.45;102607.72;4976649;28;45601;-75
2021/10/11 08:34:02;;;;;;;;;8.00;5.00;;;;;14.77;71.44;102607.81;4973767;28;45640;-75
2021/10/11 08:36:27;;;;;;;;;7.00;5.00;;;;;14.75;71.13;102601.53;4970597;28;47507;-75
2021/10/11 08:38:54;;;;;;;;;4.00;4.00;;;;;14.78;70.74;102608.72;4973622;28;45417;-75
2021/10/11 08:41:20;;;;;;;;;6.00;5.00;;;;;14.84;71.17;102608.84;4974786;28;45510;-74
2021/10/11 08:43:59;;;;;;;;;6.67;4.67;;;;;14.87;71.08;102616.91;4974299;28;45552;-76
2021/10/11 08:46:25;;;;;;;;;7.67;5.33;;;;;14.90;70.96;102614.28;4973705;28;46411;-75
2021/10/11 08:48:50;;;;;;;;;4.00;3.67;;;;;14.93;70.78;102620.59;4973602;28;45247;-75
2021/10/11 08:51:16;;;;;;;;;7.00;4.00;;;;;14.95;70.58;102620.59;4975109;28;45398;-75
2021/10/11 08:53:41;;;;;;;;;6.00;3.00;;;;;14.98;70.36;102619.78;4975457;28;45410;-74
2021/10/11 08:56:20;;;;;;;;;5.67;3.00;;;;;15.03;70.33;102612.81;4973589;28;45783;-75
2021/10/11 08:58:47;;;;;;;;;3.33;2.33;;;;;15.05;69.94;102619.03;4971893;28;45650;-76
2021/10/11 09:01:15;;;;;;;;;7.33;2.00;;;;;15.12;70.02;102626.28;4972953;28;45608;-76
2021/10/11 09:03:40;;;;;;;;;4.67;2.33;;;;;15.18;69.88;102629.09;4971031;28;45772;-76
2021/10/11 09:06:10;;;;;;;;;2.00;1.00;;;;;15.27;69.83;102628.38;4971393;28;46133;-75
2021/10/11 09:08:37;;;;;;;;;3.67;2.67;;;;;15.39;69.44;102626.88;4966285;28;45568;-78
2021/10/11 09:11:05;;;;;;;;;4.33;3.00;;;;;15.49;69.36;102625.25;4962950;28;45797;-76
2021/10/11 09:13:44;;;;;;;;;4.00;2.00;;;;;15.65;69.62;102634.47;4970976;28;45403;-75
2021/10/11 09:16:11;;;;;;;;;7.00;7.00;;;;;15.78;69.13;102633.84;4974413;28;47466;-77
2021/10/11 09:18:42;;;;;;;;;2.00;2.00;;;;;15.86;68.15;102634.88;4972002;28;45595;-75
2021/10/11 09:21:08;;;;;;;;;3.33;2.00;;;;;15.91;68.32;102629.63;4973074;28;45557;-75
2021/10/11 09:23:34;;;;;;;;;2.33;1.00;;;;;15.94;67.53;102637.69;4966451;28;45570;-75
2021/10/11 09:25:59;;;;;;;;;5.33;1.00;;;;;15.97;67.80;102630.63;4973125;28;45646;-76
2021/10/11 09:28:26;;;;;;;;;6.67;4.67;;;;;16.01;67.67;102634.25;4971824;28;45579;-75
2021/10/11 09:30:52;;;;;;;;;3.00;1.67;;;;;16.06;66.91;102629.00;4973981;28;45524;-77
2021/10/11 09:33:19;;;;;;;;;3.00;3.00;;;;;16.09;66.31;102624.63;4969148;28;45539;-75
2021/10/11 09:35:45;;;;;;;;;4.67;1.67;;;;;16.13;66.75;102617.56;4967494;28;47354;-75
2021/10/11 09:38:27;;;;;;;;;2.00;2.00;;;;;16.17;65.50;102616.75;4971835;28;45519;-75
2021/10/11 09:40:58;;;;;;;;;6.00;3.00;;;;;16.18;65.68;102607.88;4973484;28;45534;-76
2021/10/11 09:43:28;;;;;;;;;3.33;3.00;;;;;16.24;66.10;102623.97;4971711;28;45581;-76
2021/10/11 09:45:54;;;;;;;;;5.33;2.33;;;;;16.21;65.49;102614.16;4973604;28;46616;-74
2021/10/11 09:48:22;;;;;;;;;3.67;2.67;;;;;16.29;65.23;102624.03;4972162;28;45611;-75
2021/10/11 09:50:47;;;;;;;;;5.00;2.00;;;;;16.31;65.43;102604.56;4972385;28;46246;-75
2021/10/11 09:53:14;;;;;;;;;4.33;4.00;;;;;16.37;64.79;102607.31;4973658;28;45538;-77
2021/10/11 09:55:44;;;;;;;;;2.00;2.00;;;;;16.42;64.98;102602.94;4972485;28;47347;-75
2021/10/11 09:58:11;;;;;;;;;5.00;3.00;;;;;16.55;62.27;102617.34;4971110;28;45520;-75
2021/10/11 10:00:39;;;;;;;;;4.00;2.33;;;;;16.61;64.53;102616.53;4969477;28;45731;-75
2021/10/11 10:03:15;;;;;;;;;3.00;1.33;;;;;16.65;64.12;102613.06;4972561;28;45540;-75
2021/10/11 10:05:50;;;;;;;;;2.33;2.00;;;;;16.69;64.09;102613.13;4970100;28;46650;-75
2021/10/11 10:08:20;;;;;;;;;4.00;3.00;;;;;16.75;63.63;102621.25;4967257;28;45690;-75
2021/10/11 10:10:56;;;;;;;;;4.00;2.00;;;;;16.84;63.02;102612.47;4969959;28;45545;-76
2021/10/11 10:13:25;;;;;;;;;5.00;2.33;;;;;16.95;63.81;102616.19;4970112;28;45632;-75
2021/10/11 10:16:05;;;;;;;;;2.00;2.00;;;;;17.01;62.99;102612.69;4969846;28;47187;-75
2021/10/11 10:18:39;;;;;;;;;2.00;2.00;;;;;17.12;62.83;102618.19;4969934;28;46553;-75
2021/10/11 10:21:11;;;;;;;;;4.67;2.00;;;;;17.17;62.84;102611.13;4970373;28;45596;-75
2021/10/11 10:23:42;;;;;;;;;4.00;3.00;;;;;17.18;62.01;102608.47;4970034;28;45545;-75
2021/10/11 10:26:13;;;;;;;;;2.00;2.00;;;;;17.19;61.60;102601.34;4971334;28;46609;-76
2021/10/11 10:29:07;;;;;;;;;1.67;1.67;;;;;17.16;60.51;102604.00;4969798;28;45407;-76
2021/10/11 10:31:35;;;;;;;;;3.00;2.00;;;;;17.08;61.31;102598.53;4972561;28;45422;-76
2021/10/11 10:34:23;;;;;;;;;3.00;1.67;;;;;17.07;60.63;102602.09;4970676;28;45445;-75
2021/10/11 10:36:59;;;;;;;;;2.67;1.00;;;;;17.06;61.22;102597.66;4971188;28;46543;-76
2021/10/11 10:39:41;;;;;;;;;5.00;1.67;;;;;17.07;61.58;102591.41;4968469;28;47305;-76
2021/10/11 10:42:09;;;;;;;;;5.00;2.00;;;;;17.15;60.93;102588.84;4971037;28;45650;-76
2021/10/11 10:44:45;;;;;;;;;2.67;2.67;;;;;17.17;58.44;102611.13;4972878;28;45596;-75
2021/10/11 10:47:10;;;;;;;;;2.00;2.00;;;;;17.15;59.52;102612.84;4968752;28;47403;-75
2021/10/11 10:49:39;;;;;;;;;2.33;2.00;;;;;17.17;60.15;102606.69;4970744;28;54602;-75
2021/10/11 10:52:15;;;;;;;;;4.33;1.33;;;;;17.22;60.40;102615.63;4972241;28;45513;-75
2021/10/11 10:54:43;;;;;;;;;1.00;1.00;;;;;17.29;60.26;102613.94;4972089;28;45453;-75
2021/10/11 10:57:09;;;;;;;;;3.67;2.00;;;;;17.42;59.78;102613.22;4970009;28;47214;-74
2021/10/11 10:59:35;;;;;;;;;3.00;1.00;;;;;17.60;59.03;102616.94;4969951;28;47181;-74
2021/10/11 11:02:10;;;;;;;;;3.00;2.00;;;;;17.75;57.98;102620.72;4972212;28;45433;-75
2021/10/11 11:04:36;;;;;;;;;3.33;1.33;;;;;17.86;58.30;102618.13;4971446;28;45529;-74
2021/10/11 11:07:07;;;;;;;;;3.00;2.00;;;;;17.92;57.64;102607.50;4971279;28;45545;-75
2021/10/11 11:09:43;;;;;;;;;3.33;2.00;;;;;18.08;57.50;102618.34;4972338;28;45557;-75
2021/10/11 11:12:10;;;;;;;;;2.00;2.00;;;;;18.19;57.41;102614.84;4971010;28;45506;-76